sensor_id;sensor_type;location;lat;lon;timestamp;pressure;altitude;pressure_sealevel;temperature;humidity
40073;BME280;25774;52.256;9.356;2023-02-05T00:02:11;102550.03;;;0.19;100.00
40073;BME280;25774;52.256;9.356;2023-02-05T00:04:38;102546.41;;;0.11;100.00
40073;BME280;25774;52.256;9.356;2023-02-05T00:07:04;102554.63;;;0.29;100.00
40073;BME280;25774;52.256;9.356;2023-02-05T00:09:31;102552.69;;;0.20;100.00
40073;BME280;25774;52.256;9.356;2023-02-05T00:11:58;102556.16;;;0.21;100.00
40073;BME280;25774;52.256;9.356;2023-02-05T00:14:24;102549.41;;;0.29;100.00
40073;BME280;25774;52.256;9.356;2023-02-05T00:16:51;102546.41;;;0.11;100.00
40073;BME280;25774;52.256;9.356;2023-02-05T00:19:16;102534.31;;;0.11;100.00
40073;BME280;25774;52.256;9.356;2023-02-05T00:21:42;102528.03;;;0.02;100.00
40073;BME280;25774;52.256;9.356;2023-02-05T00:24:08;102538.66;;;0.12;100.00
40073;BME280;25774;52.256;9.356;2023-02-05T00:26:33;102530.63;;;0.02;100.00
40073;BME280;25774;52.256;9.356;2023-02-05T00:28:59;102520.47;;;-0.27;100.00
40073;BME280;25774;52.256;9.356;2023-02-05T00:31:24;102531.06;;;-0.18;100.00
40073;BME280;25774;52.256;9.356;2023-02-05T00:33:50;102527.75;;;-0.11;100.00
40073;BME280;25774;52.256;9.356;2023-02-05T00:36:17;102518.31;;;-0.09;100.00
40073;BME280;25774;52.256;9.356;2023-02-05T00:38:44;102514.72;;;-0.14;100.00
40073;BME280;25774;52.256;9.356;2023-02-05T00:41:10;102512.03;;;-0.18;100.00
40073;BME280;25774;52.256;9.356;2023-02-05T00:43:37;102513.91;;;-0.11;100.00
40073;BME280;25774;52.256;9.356;2023-02-05T00:46:02;102516.66;;;-0.04;100.00
40073;BME280;25774;52.256;9.356;2023-02-05T00:48:28;102502.59;;;-0.15;100.00
40073;BME280;25774;52.256;9.356;2023-02-05T00:50:53;102509.72;;;-0.05;100.00
40073;BME280;25774;52.256;9.356;2023-02-05T00:53:20;102497.59;;;-0.06;100.00
40073;BME280;25774;52.256;9.356;2023-02-05T00:55:45;102500.13;;;-0.09;100.00
40073;BME280;25774;52.256;9.356;2023-02-05T00:58:11;102499.34;;;-0.05;100.00
40073;BME280;25774;52.256;9.356;2023-02-05T01:00:37;102498.47;;;-0.05;100.00
40073;BME280;25774;52.256;9.356;2023-02-05T01:03:02;102501.22;;;0.03;100.00
40073;BME280;25774;52.256;9.356;2023-02-05T01:05:28;102491.53;;;-0.06;100.00
40073;BME280;25774;52.256;9.356;2023-02-05T01:07:55;102480.75;;;-0.23;100.00
40073;BME280;25774;52.256;9.356;2023-02-05T01:10:20;102459.63;;;-0.40;100.00
40073;BME280;25774;52.256;9.356;2023-02-05T01:12:48;102467.78;;;-0.23;100.00
40073;BME280;25774;52.256;9.356;2023-02-05T01:15:15;102465.31;;;-0.18;100.00
40073;BME280;25774;52.256;9.356;2023-02-05T01:17:40;102465.66;;;-0.02;100.00
40073;BME280;25774;52.256;9.356;2023-02-05T01:20:08;102464.88;;;0.03;100.00
40073;BME280;25774;52.256;9.356;2023-02-05T01:22:35;102454.63;;;0.07;100.00
40073;BME280;25774;52.256;9.356;2023-02-05T01:25:00;102458.09;;;0.08;100.00
40073;BME280;25774;52.256;9.356;2023-02-05T01:27:25;102459.88;;;0.12;100.00
40073;BME280;25774;52.256;9.356;2023-02-05T01:29:51;102456.34;;;0.07;100.00
40073;BME280;25774;52.256;9.356;2023-02-05T01:32:17;102458.81;;;0.01;100.00
40073;BME280;25774;52.256;9.356;2023-02-05T01:34:43;102457.22;;;0.09;100.00
40073;BME280;25774;52.256;9.356;2023-02-05T01:37:09;102460.00;;;0.16;100.00
40073;BME280;25774;52.256;9.356;2023-02-05T01:39:35;102446.03;;;0.10;100.00
40073;BME280;25774;52.256;9.356;2023-02-05T01:42:09;102431.13;;;0.03;100.00
40073;BME280;25774;52.256;9.356;2023-02-05T01:44:39;102425.09;;;0.02;100.00
40073;BME280;25774;52.256;9.356;2023-02-05T01:47:04;102427.75;;;0.05;100.00
40073;BME280;25774;52.256;9.356;2023-02-05T01:49:34;102410.06;;;-0.13;100.00
40073;BME280;25774;52.256;9.356;2023-02-05T01:52:08;102416.28;;;-0.05;100.00
40073;BME280;25774;52.256;9.356;2023-02-05T01:54:37;102396.78;;;-0.28;100.00
40073;BME280;25774;52.256;9.356;2023-02-05T01:57:08;102398.44;;;-0.32;100.00
40073;BME280;25774;52.256;9.356;2023-02-05T01:59:37;102399.44;;;-0.25;100.00
40073;BME280;25774;52.256;9.356;2023-02-05T02:02:05;102402.66;;;-0.35;100.00
40073;BME280;25774;52.256;9.356;2023-02-05T02:04:47;102423.22;;;-0.05;100.00
40073;BME280;25774;52.256;9.356;2023-02-05T02:07:16;102417.28;;;0.02;100.00
40073;BME280;25774;52.256;9.356;2023-02-05T02:09:45;102421.00;;;0.13;100.00
40073;BME280;25774;52.256;9.356;2023-02-05T02:12:13;102421.00;;;0.13;100.00
40073;BME280;25774;52.256;9.356;2023-02-05T02:14:44;102414.94;;;0.14;100.00
40073;BME280;25774;52.256;9.356;2023-02-05T02:17:12;102416.06;;;0.27;100.00
40073;BME280;25774;52.256;9.356;2023-02-05T02:28:11;102376.13;;;0.20;100.00
40073;BME280;25774;52.256;9.356;2023-02-05T02:30:42;102363.75;;;0.07;100.00
40073;BME280;25774;52.256;9.356;2023-02-05T02:33:33;102370.06;;;0.21;100.00
40073;BME280;25774;52.256;9.356;2023-02-05T02:36:33;102369.09;;;0.15;100.00
40073;BME280;25774;52.256;9.356;2023-02-05T02:41:41;102359.31;;;0.00;100.00
40073;BME280;25774;52.256;9.356;2023-02-05T02:44:35;102367.09;;;0.02;100.00
40073;BME280;25774;52.256;9.356;2023-02-05T02:47:11;102372.22;;;-0.03;100.00
40073;BME280;25774;52.256;9.356;2023-02-05T02:49:43;102375.50;;;-0.10;100.00
40073;BME280;25774;52.256;9.356;2023-02-05T02:52:14;102374.03;;;0.01;100.00
40073;BME280;25774;52.256;9.356;2023-02-05T02:54:43;102376.56;;;-0.01;100.00
40073;BME280;25774;52.256;9.356;2023-02-05T02:57:11;102379.28;;;0.06;100.00
40073;BME280;25774;52.256;9.356;2023-02-05T02:59:39;102372.53;;;0.14;100.00
40073;BME280;25774;52.256;9.356;2023-02-05T03:02:09;102376.06;;;0.19;100.00
40073;BME280;25774;52.256;9.356;2023-02-05T03:04:38;102381.44;;;0.27;100.00
40073;BME280;25774;52.256;9.356;2023-02-05T03:07:15;102371.00;;;0.25;100.00
40073;BME280;25774;52.256;9.356;2023-02-05T03:09:50;102371.13;;;0.31;100.00
40073;BME280;25774;52.256;9.356;2023-02-05T03:12:18;102368.47;;;0.28;100.00
40073;BME280;25774;52.256;9.356;2023-02-05T03:14:44;102365.28;;;0.43;100.00
40073;BME280;25774;52.256;9.356;2023-02-05T03:17:10;102370.59;;;0.49;100.00
40073;BME280;25774;52.256;9.356;2023-02-05T03:19:43;102363.63;;;0.46;100.00
40073;BME280;25774;52.256;9.356;2023-02-05T03:22:09;102379.25;;;0.48;100.00
40073;BME280;25774;52.256;9.356;2023-02-05T03:24:36;102383.75;;;0.58;100.00
40073;BME280;25774;52.256;9.356;2023-02-05T03:27:02;102377.75;;;0.61;100.00
40073;BME280;25774;52.256;9.356;2023-02-05T03:29:36;102362.09;;;0.58;100.00
40073;BME280;25774;52.256;9.356;2023-02-05T03:32:13;102387.53;;;0.77;100.00
40073;BME280;25774;52.256;9.356;2023-02-05T03:45:53;102335.47;;;0.71;100.00
40073;BME280;25774;52.256;9.356;2023-02-05T03:50:53;102320.84;;;0.79;100.00
40073;BME280;25774;52.256;9.356;2023-02-05T03:53:28;102314.72;;;0.74;100.00
40073;BME280;25774;52.256;9.356;2023-02-05T03:56:02;102326.00;;;0.76;100.00
40073;BME280;25774;52.256;9.356;2023-02-05T03:58:37;102336.78;;;0.99;100.00
40073;BME280;25774;52.256;9.356;2023-02-05T04:01:05;102322.72;;;0.86;100.00
40073;BME280;25774;52.256;9.356;2023-02-05T04:03:31;102325.31;;;0.88;100.00
40073;BME280;25774;52.256;9.356;2023-02-05T04:05:57;102324.41;;;0.84;100.00
40073;BME280;25774;52.256;9.356;2023-02-05T04:08:23;102325.53;;;1.00;100.00
40073;BME280;25774;52.256;9.356;2023-02-05T04:10:48;102298.22;;;0.72;100.00
40073;BME280;25774;52.256;9.356;2023-02-05T04:13:13;102307.53;;;0.58;100.00
40073;BME280;25774;52.256;9.356;2023-02-05T04:15:38;102317.38;;;0.79;100.00
40073;BME280;25774;52.256;9.356;2023-02-05T04:18:04;102317.31;;;0.74;100.00
40073;BME280;25774;52.256;9.356;2023-02-05T04:20:29;102316.53;;;0.80;100.00
40073;BME280;25774;52.256;9.356;2023-02-05T04:22:54;102320.94;;;0.84;100.00
40073;BME280;25774;52.256;9.356;2023-02-05T04:25:20;102320.09;;;0.85;100.00
40073;BME280;25774;52.256;9.356;2023-02-05T04:27:46;102319.31;;;0.92;100.00
40073;BME280;25774;52.256;9.356;2023-02-05T04:30:11;102318.41;;;0.88;100.00
40073;BME280;25774;52.256;9.356;2023-02-05T04:32:37;102314.78;;;0.79;100.00
40073;BME280;25774;52.256;9.356;2023-02-05T04:35:02;102308.78;;;0.83;100.00
40073;BME280;25774;52.256;9.356;2023-02-05T04:37:28;102313.97;;;0.81;100.00
40073;BME280;25774;52.256;9.356;2023-02-05T04:39:53;102306.00;;;0.71;100.00
40073;BME280;25774;52.256;9.356;2023-02-05T04:42:18;102307.63;;;0.64;100.00
40073;BME280;25774;52.256;9.356;2023-02-05T04:44:44;102306.78;;;0.66;100.00
40073;BME280;25774;52.256;9.356;2023-02-05T04:47:09;102303.38;;;0.69;100.00
40073;BME280;25774;52.256;9.356;2023-02-05T04:49:34;102307.81;;;0.75;100.00
40073;BME280;25774;52.256;9.356;2023-02-05T04:52:00;102307.06;;;0.83;100.00
40073;BME280;25774;52.256;9.356;2023-02-05T04:54:25;102304.53;;;0.86;100.00
40073;BME280;25774;52.256;9.356;2023-02-05T04:56:52;102305.34;;;0.85;100.00
40073;BME280;25774;52.256;9.356;2023-02-05T04:59:18;102308.00;;;0.88;100.00
40073;BME280;25774;52.256;9.356;2023-02-05T05:01:43;102313.34;;;0.96;100.00
40073;BME280;25774;52.256;9.356;2023-02-05T05:04:08;102323.81;;;1.02;100.00
40073;BME280;25774;52.256;9.356;2023-02-05T05:06:34;102315.13;;;1.02;100.00
40073;BME280;25774;52.256;9.356;2023-02-05T05:08:59;102313.53;;;1.10;100.00
40073;BME280;25774;52.256;9.356;2023-02-05T05:11:24;102305.78;;;1.13;100.00
40073;BME280;25774;52.256;9.356;2023-02-05T05:13:50;102308.31;;;1.10;100.00
40073;BME280;25774;52.256;9.356;2023-02-05T05:16:16;102299.63;;;1.08;100.00
40073;BME280;25774;52.256;9.356;2023-02-05T05:18:41;102296.94;;;1.02;100.00
40073;BME280;25774;52.256;9.356;2023-02-05T05:21:07;102302.38;;;1.19;100.00
40073;BME280;25774;52.256;9.356;2023-02-05T05:23:33;102293.72;;;1.21;100.00
40073;BME280;25774;52.256;9.356;2023-02-05T05:26:03;102292.78;;;1.13;100.00
40073;BME280;25774;52.256;9.356;2023-02-05T05:28:29;102298.97;;;1.23;100.00
40073;BME280;25774;52.256;9.356;2023-02-05T05:30:58;102301.69;;;1.32;100.00
40073;BME280;25774;52.256;9.356;2023-02-05T05:33:23;102282.47;;;1.21;100.00
40073;BME280;25774;52.256;9.356;2023-02-05T05:35:48;102270.31;;;1.20;100.00
40073;BME280;25774;52.256;9.356;2023-02-05T05:38:14;102257.97;;;1.05;100.00
40073;BME280;25774;52.256;9.356;2023-02-05T05:40:39;102253.72;;;1.11;100.00
40073;BME280;25774;52.256;9.356;2023-02-05T05:43:23;102252.94;;;1.17;100.00
40073;BME280;25774;52.256;9.356;2023-02-05T05:46:07;102241.56;;;1.07;100.00
40073;BME280;25774;52.256;9.356;2023-02-05T05:48:32;102227.72;;;1.10;100.00
40073;BME280;25774;52.256;9.356;2023-02-05T05:50:58;102221.53;;;1.00;100.00
40073;BME280;25774;52.256;9.356;2023-02-05T05:53:23;102215.34;;;0.92;100.00
40073;BME280;25774;52.256;9.356;2023-02-05T05:55:48;102211.84;;;0.88;100.00
40073;BME280;25774;52.256;9.356;2023-02-05T05:58:15;102210.09;;;0.89;100.00
40073;BME280;25774;52.256;9.356;2023-02-05T06:00:41;102227.56;;;0.96;100.00
40073;BME280;25774;52.256;9.356;2023-02-05T06:03:09;102242.47;;;1.11;100.00
40073;BME280;25774;52.256;9.356;2023-02-05T06:05:34;102275.78;;;1.38;100.00
40073;BME280;25774;52.256;9.356;2023-02-05T06:07:59;102280.56;;;1.77;100.00
40073;BME280;25774;52.256;9.356;2023-02-05T06:10:25;102260.47;;;1.66;100.00
40073;BME280;25774;52.256;9.356;2023-02-05T06:12:51;102252.47;;;1.49;100.00
40073;BME280;25774;52.256;9.356;2023-02-05T06:15:20;102241.88;;;1.33;100.00
40073;BME280;25774;52.256;9.356;2023-02-05T06:17:46;102259.25;;;1.34;100.00
40073;BME280;25774;52.256;9.356;2023-02-05T06:20:11;102272.34;;;1.42;100.00
40073;BME280;25774;52.256;9.356;2023-02-05T06:22:37;102279.56;;;1.63;100.00
40073;BME280;25774;52.256;9.356;2023-02-05T06:25:04;102258.78;;;1.68;100.00
40073;BME280;25774;52.256;9.356;2023-02-05T06:27:29;102250.97;;;1.66;100.00
40073;BME280;25774;52.256;9.356;2023-02-05T06:29:55;102243.19;;;1.71;100.00
40073;BME280;25774;52.256;9.356;2023-02-05T06:32:20;102224.66;;;1.42;100.00
40073;BME280;25774;52.256;9.356;2023-02-05T06:34:46;102221.91;;;1.28;100.00
40073;BME280;25774;52.256;9.356;2023-02-05T06:37:12;102220.88;;;1.15;100.00
40073;BME280;25774;52.256;9.356;2023-02-05T06:39:37;102232.13;;;1.15;100.00
40073;BME280;25774;52.256;9.356;2023-02-05T06:42:03;102233.09;;;1.22;100.00
40073;BME280;25774;52.256;9.356;2023-02-05T06:44:28;102238.28;;;1.22;100.00
40073;BME280;25774;52.256;9.356;2023-02-05T06:46:54;102220.94;;;1.24;100.00
40073;BME280;25774;52.256;9.356;2023-02-05T06:49:19;102220.13;;;1.27;100.00
40073;BME280;25774;52.256;9.356;2023-02-05T06:51:45;102234.28;;;1.50;100.00
40073;BME280;25774;52.256;9.356;2023-02-05T06:54:10;102229.88;;;1.45;100.00
40073;BME280;25774;52.256;9.356;2023-02-05T06:56:35;102228.19;;;1.50;100.00
40073;BME280;25774;52.256;9.356;2023-02-05T06:59:01;102237.84;;;1.57;100.00
40073;BME280;25774;52.256;9.356;2023-02-05T07:01:26;102227.44;;;1.58;100.00
40073;BME280;25774;52.256;9.356;2023-02-05T07:03:51;102225.84;;;1.71;100.00
40073;BME280;25774;52.256;9.356;2023-02-05T07:06:20;102212.63;;;1.53;100.00
40073;BME280;25774;52.256;9.356;2023-02-05T07:08:48;102214.31;;;1.48;100.00
40073;BME280;25774;52.256;9.356;2023-02-05T07:11:14;102208.22;;;1.44;100.00
40073;BME280;25774;52.256;9.356;2023-02-05T07:13:39;102208.13;;;1.39;100.00
40073;BME280;25774;52.256;9.356;2023-02-05T07:16:05;102204.63;;;1.36;100.00
40073;BME280;25774;52.256;9.356;2023-02-05T07:18:31;102202.84;;;1.32;100.00
40073;BME280;25774;52.256;9.356;2023-02-05T07:20:56;102223.91;;;1.52;100.00
40073;BME280;25774;52.256;9.356;2023-02-05T07:23:22;102223.75;;;1.39;100.00
40073;BME280;25774;52.256;9.356;2023-02-05T07:25:49;102211.50;;;1.29;100.00
40073;BME280;25774;52.256;9.356;2023-02-05T07:28:15;102228.78;;;1.27;100.00
40073;BME280;25774;52.256;9.356;2023-02-05T07:30:40;102233.25;;;1.34;100.00
40073;BME280;25774;52.256;9.356;2023-02-05T07:33:05;102239.28;;;1.32;100.00
40073;BME280;25774;52.256;9.356;2023-02-05T07:35:32;102231.34;;;1.24;100.00
40073;BME280;25774;52.256;9.356;2023-02-05T07:37:59;102239.34;;;1.38;100.00
40073;BME280;25774;52.256;9.356;2023-02-05T07:40:24;102235.72;;;1.25;100.00
40073;BME280;25774;52.256;9.356;2023-02-05T07:42:50;102243.69;;;1.39;100.00
40073;BME280;25774;52.256;9.356;2023-02-05T07:45:15;102252.44;;;1.46;100.00
40073;BME280;25774;52.256;9.356;2023-02-05T07:47:40;102241.72;;;1.21;100.00
40073;BME280;25774;52.256;9.356;2023-02-05T07:50:06;102257.53;;;1.36;100.00
40073;BME280;25774;52.256;9.356;2023-02-05T07:52:32;102252.16;;;1.24;100.00
40073;BME280;25774;52.256;9.356;2023-02-05T07:54:57;102264.38;;;1.30;100.00
40073;BME280;25774;52.256;9.356;2023-02-05T07:57:23;102283.81;;;1.59;100.00
40073;BME280;25774;52.256;9.356;2023-02-05T07:59:49;102293.78;;;1.96;100.00
40073;BME280;25774;52.256;9.356;2023-02-05T08:02:15;102299.31;;;2.29;100.00
40073;BME280;25774;52.256;9.356;2023-02-05T08:04:40;102285.22;;;2.06;100.00
40073;BME280;25774;52.256;9.356;2023-02-05T08:07:05;102269.34;;;1.83;100.00
40073;BME280;25774;52.256;9.356;2023-02-05T08:09:31;102275.44;;;1.83;100.00
40073;BME280;25774;52.256;9.356;2023-02-05T08:11:57;102279.69;;;1.77;100.00
40073;BME280;25774;52.256;9.356;2023-02-05T08:14:22;102289.31;;;1.84;100.00
40073;BME280;25774;52.256;9.356;2023-02-05T08:16:48;102276.03;;;1.61;100.00
40073;BME280;25774;52.256;9.356;2023-02-05T08:19:14;102275.88;;;1.47;100.00
40073;BME280;25774;52.256;9.356;2023-02-05T08:21:40;102276.84;;;1.54;100.00
40073;BME280;25774;52.256;9.356;2023-02-05T08:24:06;102293.50;;;1.70;100.00
40073;BME280;25774;52.256;9.356;2023-02-05T08:26:31;102277.78;;;1.62;100.00
40073;BME280;25774;52.256;9.356;2023-02-05T08:28:58;102282.00;;;1.52;100.00
40073;BME280;25774;52.256;9.356;2023-02-05T08:31:24;102290.47;;;1.36;100.00
40073;BME280;25774;52.256;9.356;2023-02-05T08:33:49;102310.00;;;1.70;100.00
40073;BME280;25774;52.256;9.356;2023-02-05T08:36:19;102320.47;;;1.76;100.00
40073;BME280;25774;52.256;9.356;2023-02-05T08:38:44;102320.69;;;1.95;100.00
40073;BME280;25774;52.256;9.356;2023-02-05T08:41:09;102302.19;;;1.70;100.00
40073;BME280;25774;52.256;9.356;2023-02-05T08:43:43;102305.69;;;1.75;100.00
40073;BME280;25774;52.256;9.356;2023-02-05T08:46:11;102311.94;;;1.91;100.00
40073;BME280;25774;52.256;9.356;2023-02-05T08:48:37;102319.06;;;2.06;100.00
40073;BME280;25774;52.256;9.356;2023-02-05T08:51:02;102291.03;;;1.82;100.00
40073;BME280;25774;52.256;9.356;2023-02-05T08:53:29;102305.00;;;1.89;100.00
40073;BME280;25774;52.256;9.356;2023-02-05T08:55:57;102296.25;;;1.82;100.00
40073;BME280;25774;52.256;9.356;2023-02-05T08:58:23;102309.41;;;1.96;100.00
40073;BME280;25774;52.256;9.356;2023-02-05T09:00:49;102296.03;;;1.65;100.00
40073;BME280;25774;52.256;9.356;2023-02-05T09:03:15;102305.75;;;1.80;100.00
40073;BME280;25774;52.256;9.356;2023-02-05T09:05:40;102312.81;;;1.89;100.00
40073;BME280;25774;52.256;9.356;2023-02-05T09:08:05;102312.81;;;1.89;100.00
40073;BME280;25774;52.256;9.356;2023-02-05T09:10:31;102316.22;;;1.84;100.00
40073;BME280;25774;52.256;9.356;2023-02-05T09:12:56;102314.47;;;1.85;100.00
40073;BME280;25774;52.256;9.356;2023-02-05T09:15:22;102317.19;;;1.94;100.00
40073;BME280;25774;52.256;9.356;2023-02-05T09:17:47;102314.56;;;1.90;100.00
40073;BME280;25774;52.256;9.356;2023-02-05T09:20:13;102314.56;;;1.91;100.00
40073;BME280;25774;52.256;9.356;2023-02-05T09:22:38;102321.63;;;2.03;100.00
40073;BME280;25774;52.256;9.356;2023-02-05T09:25:05;102316.31;;;1.92;100.00
40073;BME280;25774;52.256;9.356;2023-02-05T09:27:30;102308.47;;;1.91;100.00
40073;BME280;25774;52.256;9.356;2023-02-05T09:29:56;102311.97;;;1.93;100.00
40073;BME280;25774;52.256;9.356;2023-02-05T09:32:22;102316.34;;;1.95;100.00
40073;BME280;25774;52.256;9.356;2023-02-05T09:34:48;102325.06;;;2.00;100.00
40073;BME280;25774;52.256;9.356;2023-02-05T09:37:14;102319.94;;;2.06;100.00
40073;BME280;25774;52.256;9.356;2023-02-05T09:39:40;102317.25;;;2.00;100.00
40073;BME280;25774;52.256;9.356;2023-02-05T09:45:15;102331.44;;;2.28;100.00
40073;BME280;25774;52.256;9.356;2023-02-05T09:50:48;102322.84;;;2.37;100.00
40073;BME280;25774;52.256;9.356;2023-02-05T09:53:17;102326.28;;;2.35;100.00
40073;BME280;25774;52.256;9.356;2023-02-05T09:55:44;102337.72;;;2.49;100.00
40073;BME280;25774;52.256;9.356;2023-02-05T09:58:14;102338.53;;;2.40;100.00
40073;BME280;25774;52.256;9.356;2023-02-05T10:01:00;102337.72;;;2.49;100.00
40073;BME280;25774;52.256;9.356;2023-02-05T10:03:30;102337.72;;;2.47;100.00
40073;BME280;25774;52.256;9.356;2023-02-05T10:11:33;102354.38;;;2.66;100.00
40073;BME280;25774;52.256;9.356;2023-02-05T10:14:39;102363.19;;;2.80;100.00
40073;BME280;25774;52.256;9.356;2023-02-05T10:17:30;102371.84;;;2.76;100.00
40073;BME280;25774;52.256;9.356;2023-02-05T10:25:17;102374.59;;;2.93;100.00
40073;BME280;25774;52.256;9.356;2023-02-05T10:31:07;102365.09;;;3.00;100.00
40073;BME280;25774;52.256;9.356;2023-02-05T10:33:51;102360.81;;;3.07;100.00
40073;BME280;25774;52.256;9.356;2023-02-05T10:36:25;102355.59;;;3.07;100.00
40073;BME280;25774;52.256;9.356;2023-02-05T10:38:53;102361.75;;;3.19;100.00
40073;BME280;25774;52.256;9.356;2023-02-05T10:41:36;102356.50;;;3.15;100.00
40073;BME280;25774;52.256;9.356;2023-02-05T10:44:31;102363.53;;;3.23;100.00
40073;BME280;25774;52.256;9.356;2023-02-05T10:47:18;102348.59;;;3.04;100.00
40073;BME280;25774;52.256;9.356;2023-02-05T10:50:17;102358.22;;;3.14;100.00
40073;BME280;25774;52.256;9.356;2023-02-05T10:52:44;102357.56;;;3.46;100.00
40073;BME280;25774;52.256;9.356;2023-02-05T10:55:12;102351.50;;;3.53;100.00
40073;BME280;25774;52.256;9.356;2023-02-05T10:57:39;102344.50;;;3.44;100.00
40073;BME280;25774;52.256;9.356;2023-02-05T11:00:12;102354.09;;;3.53;100.00
40073;BME280;25774;52.256;9.356;2023-02-05T11:02:41;102354.97;;;3.49;100.00
40073;BME280;25774;52.256;9.356;2023-02-05T11:05:21;102361.16;;;3.71;100.00
40073;BME280;25774;52.256;9.356;2023-02-05T11:07:50;102351.59;;;3.76;100.00
40073;BME280;25774;52.256;9.356;2023-02-05T11:10:25;102347.22;;;3.66;100.00
40073;BME280;25774;52.256;9.356;2023-02-05T11:12:58;102355.97;;;3.76;100.00
40073;BME280;25774;52.256;9.356;2023-02-05T11:15:28;102357.81;;;4.10;100.00
40073;BME280;25774;52.256;9.356;2023-02-05T11:18:04;102353.44;;;3.99;100.00
40073;BME280;25774;52.256;9.356;2023-02-05T11:20:37;102349.09;;;3.96;100.00
40073;BME280;25774;52.256;9.356;2023-02-05T11:23:18;102358.75;;;4.22;100.00
40073;BME280;25774;52.256;9.356;2023-02-05T11:25:49;102350.00;;;4.19;100.00
40073;BME280;25774;52.256;9.356;2023-02-05T11:28:26;102348.28;;;4.37;100.00
40073;BME280;25774;52.256;9.356;2023-02-05T11:30:52;102346.56;;;4.56;100.00
40073;BME280;25774;52.256;9.356;2023-02-05T11:35:59;102347.47;;;4.79;100.00
40073;BME280;25774;52.256;9.356;2023-02-05T11:41:06;102328.28;;;4.79;100.00
40073;BME280;25774;52.256;9.356;2023-02-05T11:43:39;102326.53;;;4.76;100.00
40073;BME280;25774;52.256;9.356;2023-02-05T11:46:09;102336.13;;;4.80;100.00
40073;BME280;25774;52.256;9.356;2023-02-05T11:48:41;102335.25;;;4.95;100.00
40073;BME280;25774;52.256;9.356;2023-02-05T11:51:25;102324.78;;;5.01;100.00
40073;BME280;25774;52.256;9.356;2023-02-05T11:53:57;102320.41;;;4.99;100.00
40073;BME280;25774;52.256;9.356;2023-02-05T11:56:23;102335.22;;;5.21;100.00
40073;BME280;25774;52.256;9.356;2023-02-05T11:59:02;102342.19;;;5.21;100.00
40073;BME280;25774;52.256;9.356;2023-02-05T12:01:33;102324.78;;;4.92;100.00
40073;BME280;25774;52.256;9.356;2023-02-05T12:06:56;102325.63;;;4.97;100.00
40073;BME280;25774;52.256;9.356;2023-02-05T12:09:24;102337.84;;;5.03;100.00
40073;BME280;25774;52.256;9.356;2023-02-05T12:12:22;102345.72;;;5.07;100.00
40073;BME280;25774;52.256;9.356;2023-02-05T12:17:33;102337.00;;;4.96;100.00
40073;BME280;25774;52.256;9.356;2023-02-05T12:20:05;102343.09;;;5.03;100.00
40073;BME280;25774;52.256;9.356;2023-02-05T12:25:22;102347.41;;;5.22;100.00
40073;BME280;25774;52.256;9.356;2023-02-05T12:30:49;102330.88;;;4.94;100.00
40073;BME280;25774;52.256;9.356;2023-02-05T12:36:10;102339.50;;;5.42;100.00
40073;BME280;25774;52.256;9.356;2023-02-05T12:38:53;102325.63;;;5.19;100.00
40073;BME280;25774;52.256;9.356;2023-02-05T12:41:32;102320.34;;;5.40;100.00
40073;BME280;25774;52.256;9.356;2023-02-05T12:49:50;102317.69;;;5.49;100.00
40073;BME280;25774;52.256;9.356;2023-02-05T12:52:37;102306.22;;;5.73;100.00
40073;BME280;25774;52.256;9.356;2023-02-05T12:57:56;102297.47;;;5.79;100.00
40073;BME280;25774;52.256;9.356;2023-02-05T13:00:27;102275.75;;;5.55;100.00
40073;BME280;25774;52.256;9.356;2023-02-05T13:05:41;102277.44;;;5.64;100.00
40073;BME280;25774;52.256;9.356;2023-02-05T13:08:33;102260.91;;;5.51;100.00
40073;BME280;25774;52.256;9.356;2023-02-05T13:11:25;102263.56;;;5.50;100.00
40073;BME280;25774;52.256;9.356;2023-02-05T13:14:00;102269.66;;;5.50;100.00
40073;BME280;25774;52.256;9.356;2023-02-05T13:16:47;102278.28;;;5.75;100.00
40073;BME280;25774;52.256;9.356;2023-02-05T13:19:27;102278.38;;;5.55;100.00
40073;BME280;25774;52.256;9.356;2023-02-05T13:21:56;102291.47;;;5.54;100.00
40073;BME280;25774;52.256;9.356;2023-02-05T13:24:49;102301.09;;;5.49;100.00
40073;BME280;25774;52.256;9.356;2023-02-05T13:27:45;102308.94;;;5.47;100.00
40073;BME280;25774;52.256;9.356;2023-02-05T13:30:38;102328.16;;;5.46;100.00
40073;BME280;25774;52.256;9.356;2023-02-05T13:33:05;102324.69;;;5.38;100.00
40073;BME280;25774;52.256;9.356;2023-02-05T13:35:56;102329.91;;;5.47;100.00
40073;BME280;25774;52.256;9.356;2023-02-05T13:38:44;102334.28;;;5.41;100.00
40073;BME280;25774;52.256;9.356;2023-02-05T13:41:33;102341.25;;;5.45;100.00
40073;BME280;25774;52.256;9.356;2023-02-05T13:44:24;102341.22;;;5.57;100.00
40073;BME280;25774;52.256;9.356;2023-02-05T13:53:20;102353.47;;;5.41;100.00
40073;BME280;25774;52.256;9.356;2023-02-05T13:56:09;102361.34;;;5.49;100.00
40073;BME280;25774;52.256;9.356;2023-02-05T13:58:50;102325.69;;;4.76;100.00
40073;BME280;25774;52.256;9.356;2023-02-05T14:04:20;102358.78;;;4.78;100.00
40073;BME280;25774;52.256;9.356;2023-02-05T14:07:05;102384.06;;;5.16;100.00
40073;BME280;25774;52.256;9.356;2023-02-05T14:09:55;102371.88;;;5.04;100.00
40073;BME280;25774;52.256;9.356;2023-02-05T14:12:36;102362.25;;;4.37;100.00
40073;BME280;25774;52.256;9.356;2023-02-05T14:15:34;102390.09;;;4.22;100.00
40073;BME280;25774;52.256;9.356;2023-02-05T14:18:00;102403.19;;;4.28;100.00
40073;BME280;25774;52.256;9.356;2023-02-05T14:20:31;102411.88;;;4.24;100.00
40073;BME280;25774;52.256;9.356;2023-02-05T14:22:58;102424.84;;;3.99;100.00
40073;BME280;25774;52.256;9.356;2023-02-05T14:30:55;102436.91;;;3.76;100.00
40073;BME280;25774;52.256;9.356;2023-02-05T14:33:36;102454.25;;;3.61;100.00
40073;BME280;25774;52.256;9.356;2023-02-05T14:41:17;102491.53;;;3.42;100.00